Date,TemperatureHighF,TemperatureAvgF,TemperatureLowF,DewpointHighF,DewpointAvgF,DewpointLowF,HumidityHigh,HumidityAvg,HumidityLow,PressureMaxIn,PressureMinIn,WindSpeedMaxMPH,WindSpeedAvgMPH,GustSpeedMaxMPH,PrecipitationSumIn
2013-1-1,52.0,40.8,32.0,37.0,33.8,30.0,100,78,43,30.32,30.23,18,5,24,0.00
2013-1-2,54.0,40.8,32.0,36.0,32.7,28.0,100,75,43,30.29,30.17,8,1,0,0.00
2013-1-3,52.0,39.2,28.0,41.0,35.1,28.0,100,87,53,30.30,30.20,7,0,0,0.00
2013-1-4,54.0,40.9,32.0,41.0,35.7,32.0,100,85,46,30.33,30.21,9,0,0,0.00
2013-1-5,48.0,40.4,32.0,46.0,40.2,32.0,100,99,81,30.30,30.12,13,2,0,0.00
2013-1-6,54.0,44.7,36.0,48.0,44.1,36.0,100,98,76,30.21,30.11,13,4,16,0.00
2013-1-7,54.0,44.1,36.0,48.0,42.6,36.0,100,95,71,30.26,30.17,10,2,0,0.00
2013-1-8,55.0,42.8,34.0,50.0,41.7,34.0,100,97,76,30.28,30.16,0,0,0,0.00
2013-1-9,52.0,43.1,37.0,52.0,40.6,32.0,100,92,57,30.19,29.95,18,4,27,0.00
2013-1-10,50.0,39.9,32.0,37.0,33.8,30.0,100,80,46,30.16,30.04,9,1,0,0.00
2013-1-11,50.0,38.7,30.0,41.0,34.2,30.0,100,86,49,30.25,30.14,10,1,0,0.00
2013-1-12,48.0,39.3,32.0,37.0,29.1,21.0,100,70,36,30.27,30.17,14,6,16,0.00
2013-1-13,46.0,37.8,30.0,30.0,22.5,18.0,92,56,31,30.29,30.20,18,10,23,0.00
2013-1-14,52.0,40.5,36.0,30.0,21.2,14.0,80,48,26,30.44,30.25,20,10,24,0.00
2013-1-15,52.0,37.7,28.0,36.0,30.6,27.0,100,79,39,30.53,30.41,0,0,0,0.00
2013-1-16,57.0,40.1,28.0,39.0,33.9,28.0,100,82,40,30.47,30.31,6,0,0,0.00
2013-1-17,59.0,40.8,30.0,43.0,34.5,30.0,100,83,35,30.31,30.20,1,0,0,0.00
2013-1-18,61.0,43.4,32.0,43.0,33.7,30.0,100,74,33,30.28,30.17,12,2,0,0.00
2013-1-19,63.0,43.7,30.0,37.0,32.0,27.0,100,69,25,30.31,30.19,9,2,0,0.00
2013-1-20,63.0,45.1,32.0,36.0,30.8,23.0,93,64,23,30.27,30.15,13,3,0,0.00
2013-1-21,63.0,44.5,30.0,41.0,35.1,30.0,100,74,36,30.22,30.14,7,1,0,0.00
2013-1-22,61.0,45.0,32.0,43.0,36.7,32.0,100,77,36,30.18,30.05,6,0,0,0.00
2013-1-23,54.0,47.5,45.0,52.0,44.6,39.0,100,90,71,30.14,30.01,14,2,0,0.00
2013-1-24,59.0,53.0,46.0,57.0,52.6,46.0,100,99,87,30.22,30.10,14,7,20,0.00
2013-1-25,66.0,56.0,48.0,59.0,53.7,48.0,100,93,72,30.22,30.06,5,0,0,0.00
2013-1-26,64.0,64.0,64.0,57.0,57.0,57.0,77,77,77,30.06,30.06,0,0,0,0.00
2013-1-27,64.0,64.0,64.0,57.0,57.0,57.0,77,77,77,30.06,30.06,0,0,0,0.00
2013-1-28,64.0,64.0,64.0,57.0,57.0,57.0,77,77,77,30.06,30.06,0,0,0,0.00
2013-1-29,64.0,64.0,64.0,57.0,57.0,57.0,77,77,77,30.06,30.06,0,0,0,0.00
2013-1-30,64.0,64.0,64.0,57.0,57.0,57.0,77,77,77,30.06,30.06,0,0,0,0.00
2013-1-31,64.0,64.0,64.0,57.0,57.0,57.0,77,77,77,30.06,30.06,0,0,0,0.00
2013-2-1,64.0,64.0,64.0,57.0,57.0,57.0,77,77,77,30.06,30.06,0,0,0,0.00
2013-2-2,64.0,64.0,64.0,57.0,57.0,57.0,77,77,77,30.06,30.06,0,0,0,0.00
2013-2-3,64.0,64.0,64.0,57.0,57.0,57.0,77,77,77,30.06,30.06,0,0,0,0.00
2013-2-4,64.0,64.0,64.0,57.0,57.0,57.0,77,77,77,30.06,30.06,0,0,0,0.00
2013-2-5,64.0,64.0,64.0,57.0,57.0,57.0,77,77,77,30.06,30.06,0,0,0,0.00
2013-2-6,64.0,64.0,64.0,57.0,57.0,57.0,77,77,77,30.06,30.06,0,0,0,0.00
2013-2-7,64.0,64.0,64.0,57.0,57.0,57.0,77,77,77,30.06,30.06,0,0,0,0.00
2013-2-8,64.0,64.0,64.0,57.0,57.0,57.0,77,77,77,30.06,30.06,0,0,0,0.00
2013-2-9,64.0,64.0,64.0,57.0,57.0,57.0,77,77,77,30.06,30.06,0,0,0,0.00
2013-2-10,64.0,64.0,64.0,57.0,57.0,57.0,77,77,77,30.06,30.06,0,0,0,0.00
2013-2-11,64.0,64.0,64.0,57.0,57.0,57.0,77,77,77,30.06,30.06,0,0,0,0.00
2013-2-12,64.0,64.0,64.0,57.0,57.0,57.0,77,77,77,30.06,30.06,0,0,0,0.00
2013-2-13,64.0,51.2,43.0,57.0,43.5,37.0,100,77,39,30.25,30.06,5,0,0,0.00
2013-2-14,72.0,55.6,37.0,45.0,39.8,34.0,100,61,28,30.27,30.17,21,7,27,0.00
2013-2-15,70.0,53.3,36.0,45.0,39.2,36.0,100,63,28,30.31,30.23,10,2,0,0.00
2013-2-16,70.0,53.0,39.0,48.0,42.4,37.0,100,70,37,30.27,30.03,9,2,0,0.00
2013-2-17,66.0,50.1,36.0,46.0,36.1,27.0,100,66,22,30.06,29.96,23,6,28,0.00
2013-2-18,57.0,45.9,34.0,46.0,40.4,34.0,100,81,54,30.01,29.90,23,7,23,0.00
2013-2-19,52.0,44.2,37.0,46.0,39.6,32.0,100,85,49,29.92,29.73,16,8,23,0.00
2013-2-20,61.0,47.1,34.0,37.0,32.4,28.0,100,61,29,30.04,29.84,27,10,33,0.00
2013-2-21,63.0,47.1,32.0,41.0,32.7,25.0,100,62,25,30.18,30.03,18,7,23,0.00
2013-2-22,64.0,49.8,34.0,46.0,38.2,32.0,100,67,36,30.26,30.13,12,4,0,0.00
2013-2-23,61.0,51.5,45.0,46.0,32.1,23.0,87,50,24,30.27,30.11,28,13,29,0.00
2013-2-24,64.0,51.3,37.0,32.0,26.6,21.0,74,40,20,30.27,30.16,28,13,32,0.00
2013-2-25,63.0,47.5,36.0,36.0,33.0,30.0,86,59,31,30.24,30.18,9,4,0,0.00
2013-2-26,68.0,52.9,39.0,32.0,27.7,23.0,75,40,20,30.24,30.13,29,14,36,0.00
2013-2-27,66.0,50.0,34.0,43.0,32.2,-99.9,87,55,27,30.36,30.20,7,0,0,0.00
2013-2-28,72.0,55.9,43.0,48.0,44.1,37.0,100,69,30,30.45,30.35,7,1,0,0.00
2013-3-1,73.0,56.9,41.0,50.0,45.9,41.0,100,71,33,30.43,30.25,13,2,0,0.00
2013-3-2,70.0,56.9,43.0,57.0,51.0,43.0,100,82,52,30.26,30.07,8,1,0,0.00
2013-3-3,66.0,58.5,46.0,55.0,53.1,46.0,100,82,59,30.07,30.01,13,3,0,0.00
2013-3-4,66.0,51.4,37.0,54.0,47.5,37.0,100,87,55,30.14,30.02,8,2,0,0.00
2013-3-5,61.0,50.7,39.0,48.0,40.5,27.0,100,69,47,30.03,29.83,22,10,25,0.00
2013-3-6,57.0,50.2,39.0,50.0,42.3,36.0,100,75,50,30.06,29.83,15,8,25,0.00
2013-3-7,59.0,45.9,34.0,43.0,38.7,34.0,100,78,44,30.02,29.88,13,4,0,0.00
2013-3-8,68.0,51.9,37.0,45.0,37.4,32.0,100,63,26,30.03,29.82,17,6,22,0.00
2013-3-9,70.0,52.8,37.0,48.0,35.6,28.0,100,61,21,30.29,30.03,24,8,31,0.00
2013-3-10,70.0,54.5,37.0,48.0,36.7,30.0,100,55,24,30.39,30.26,12,4,0,0.00
2013-3-11,73.0,54.9,37.0,52.0,43.9,37.0,100,72,31,30.28,30.09,8,0,0,0.00
2013-3-12,75.0,57.2,39.0,54.0,47.6,39.0,100,75,35,30.18,30.07,5,0,0,0.00
2013-3-13,79.0,59.7,45.0,57.0,49.1,-99.9,100,75,34,30.19,30.08,9,-27,97,0.00
2013-3-14,77.0,61.1,48.0,63.0,53.4,48.0,100,79,44,30.16,30.08,8,3,0,0.00
2013-3-15,77.0,61.5,48.0,55.0,49.7,43.0,100,69,31,30.13,30.02,10,4,0,0.00
2013-3-16,79.0,62.1,46.0,52.0,43.4,37.0,100,57,23,30.09,29.98,14,5,17,0.00
2013-3-17,72.0,58.1,39.0,45.0,37.2,30.0,100,50,21,30.16,30.03,10,5,0,0.00
2013-3-18,70.0,56.5,43.0,46.0,40.4,-99.9,93,59,30,30.13,30.03,8,3,0,0.00
2013-3-19,68.0,56.6,45.0,54.0,45.3,36.0,93,68,40,30.14,30.06,14,3,0,0.00
2013-3-20,64.0,55.4,48.0,55.0,51.4,46.0,100,87,72,30.13,30.07,17,8,22,0.00
2013-3-21,66.0,54.4,43.0,48.0,35.5,21.0,100,54,17,30.14,30.02,22,10,25,0.00
2013-3-22,64.0,55.7,46.0,32.0,25.0,19.0,45,31,17,30.14,30.05,29,18,35,0.00
2013-3-23,70.0,57.1,46.0,39.0,27.6,23.0,66,34,16,30.17,30.04,22,4,31,0.00
2013-3-24,73.0,56.3,39.0,46.0,39.0,34.0,86,56,24,30.11,29.96,8,-3,0,0.00
2013-3-25,72.0,54.8,37.0,48.0,42.4,36.0,100,66,33,30.01,29.90,14,4,0,0.00
2013-3-26,72.0,56.6,39.0,46.0,44.1,39.0,100,65,35,30.01,29.92,10,4,0,0.00
2013-3-27,72.0,57.8,48.0,52.0,48.1,43.0,93,71,46,30.02,29.93,16,6,21,0.00
2013-3-28,68.0,58.4,50.0,52.0,49.6,46.0,93,74,52,30.12,30.02,9,4,0,0.00
2013-3-29,77.0,62.1,48.0,52.0,49.0,46.0,93,65,36,30.13,30.02,16,-1,21,0.00
2013-3-30,75.0,61.7,52.0,54.0,47.8,-99.9,87,64,41,30.06,29.98,16,4,0,0.00
2013-3-31,70.0,58.3,54.0,55.0,53.6,48.0,100,85,46,30.11,30.01,17,6,22,0.00
2013-4-1,70.0,58.9,52.0,55.0,53.2,48.0,100,82,49,30.17,30.07,10,3,0,0.00
2013-4-2,73.0,59.9,46.0,57.0,51.9,46.0,100,77,49,30.18,30.07,9,4,0,0.00
2013-4-3,75.0,60.6,46.0,55.0,51.5,46.0,100,74,43,30.15,29.98,8,2,0,0.00
2013-4-4,66.0,57.7,52.0,59.0,53.3,46.0,100,85,67,30.12,29.97,17,8,20,0.00
2013-4-5,68.0,59.4,50.0,54.0,50.6,46.0,100,74,45,30.17,30.10,12,6,0,0.00
2013-4-6,70.0,60.5,54.0,55.0,50.8,43.0,87,71,49,30.19,30.10,15,8,16,0.00
2013-4-7,70.0,58.9,50.0,54.0,48.2,43.0,93,68,51,30.15,29.81,20,8,23,0.00
2013-4-8,68.0,57.3,48.0,48.0,34.2,27.0,93,45,20,30.02,29.76,37,18,45,0.00
2013-4-9,55.0,55.0,55.0,34.0,34.0,34.0,43,43,43,30.02,30.02,12,12,0,0.00
2013-4-10,55.0,55.0,55.0,34.0,34.0,34.0,43,43,43,30.02,30.02,12,12,0,0.00
2013-4-11,55.0,55.0,55.0,34.0,34.0,34.0,43,43,43,30.02,30.02,12,12,0,0.00
2013-4-12,55.0,55.0,55.0,34.0,34.0,34.0,43,43,43,30.02,30.02,12,12,0,0.00
2013-4-13,55.0,55.0,55.0,34.0,34.0,34.0,43,43,43,30.02,30.02,12,12,0,0.00
2013-4-14,55.0,55.0,55.0,34.0,34.0,34.0,43,43,43,30.02,30.02,12,12,0,0.00
2013-4-15,55.0,55.0,55.0,34.0,34.0,34.0,43,43,43,30.02,30.02,12,12,0,0.00
2013-4-16,66.0,61.0,48.0,32.0,27.7,23.0,53,29,20,30.19,30.06,27,14,33,0.00
2013-4-17,68.0,56.7,48.0,32.0,29.8,23.0,53,37,20,30.29,30.19,28,15,33,0.00
2013-4-18,77.0,65.0,52.0,43.0,33.5,28.0,62,32,19,30.29,30.18,17,8,21,0.00
2013-4-19,82.0,63.7,43.0,54.0,44.9,37.0,81,54,26,30.25,30.05,9,2,0,0.00
2013-4-20,84.0,69.6,57.0,46.0,35.8,27.0,62,31,12,30.13,29.96,24,12,31,0.00
2013-4-21,90.0,70.9,54.0,48.0,39.0,32.0,71,36,13,30.06,29.92,24,8,28,0.00
2013-4-22,88.0,74.6,59.0,45.0,36.4,25.0,58,28,10,29.98,29.86,30,14,37,0.00
2013-4-23,84.0,71.4,57.0,43.0,26.7,21.0,50,20,9,29.96,29.83,33,16,39,0.00
2013-4-24,88.0,68.7,46.0,46.0,35.9,27.0,81,38,12,29.87,29.76,25,10,30,0.00
2013-4-25,81.0,62.5,45.0,52.0,45.9,41.0,93,58,26,30.06,29.84,12,5,0,0.00
2013-4-26,82.0,62.9,46.0,55.0,48.3,43.0,93,63,32,30.22,30.06,9,4,0,0.00
2013-4-27,88.0,66.8,48.0,57.0,50.5,45.0,93,60,30,30.22,30.02,9,3,0,0.00
2013-4-28,91.0,71.2,52.0,55.0,47.8,37.0,87,52,15,30.05,29.86,15,4,16,0.00
2013-4-29,91.0,79.4,64.0,54.0,44.4,39.0,63,30,17,29.90,29.75,22,11,30,0.00
2013-4-30,82.0,74.4,64.0,46.0,28.8,19.0,38,20,10,29.88,29.76,33,21,44,0.00
2013-5-1,88.0,78.8,68.0,32.0,27.7,23.0,21,15,10,30.10,29.88,32,19,38,0.00
2013-5-2,91.0,76.6,64.0,43.0,27.7,19.0,33,17,10,30.19,30.06,28,10,29,0.00
2013-5-3,93.0,74.7,54.0,48.0,40.2,34.0,66,33,12,30.06,29.76,13,6,0,0.00
2013-5-4,90.0,77.5,61.0,50.0,36.3,30.0,59,24,12,29.77,29.52,33,14,33,0.00
2013-5-5,72.0,63.9,55.0,50.0,46.3,45.0,71,54,37,29.82,29.55,16,7,18,0.00
2013-5-6,72.0,63.2,55.0,55.0,51.5,48.0,93,66,46,29.97,29.81,14,6,23,0.00
2013-5-7,73.0,64.5,57.0,55.0,51.1,-99.9,87,64,40,30.03,29.96,12,5,0,0.00
2013-5-8,77.0,64.8,57.0,54.0,52.3,48.0,82,65,38,30.09,30.00,14,5,22,0.00
2013-5-9,82.0,66.0,52.0,57.0,52.9,48.0,93,65,39,30.13,30.00,15,5,16,0.00
2013-5-10,88.0,67.4,52.0,61.0,52.3,-99.9,93,64,37,30.15,30.02,10,4,0,0.00
2013-5-11,93.0,72.7,54.0,61.0,54.9,-99.9,93,59,29,30.11,29.99,13,3,0,0.00
2013-5-12,97.0,74.3,54.0,55.0,50.4,41.0,93,50,14,30.10,29.96,17,6,20,0.00
2013-5-13,91.0,73.0,54.0,59.0,52.4,46.0,87,53,21,30.05,29.89,10,5,0,0.00
2013-5-14,90.0,74.2,57.0,55.0,51.9,46.0,87,50,24,29.90,29.83,16,7,20,0.00
2013-5-15,84.0,66.9,54.0,52.0,47.6,43.0,76,52,28,30.00,29.88,13,6,0,0.00
2013-5-16,81.0,65.2,55.0,52.0,32.5,-99.9,72,46,26,29.97,29.88,17,8,23,0.00
2013-5-17,79.0,62.7,48.0,50.0,42.0,-99.9,93,55,27,30.02,29.93,15,5,17,0.00
2013-5-18,82.0,65.2,46.0,52.0,45.7,36.0,93,54,22,30.13,30.02,14,4,17,0.00
2013-5-19,86.0,73.4,61.0,48.0,36.9,25.0,59,29,10,30.13,29.97,27,13,36,0.00
2013-5-20,90.0,78.3,66.0,45.0,37.5,28.0,45,24,11,30.01,29.87,23,12,29,0.00
2013-5-21,84.0,69.5,55.0,48.0,38.5,16.0,76,38,8,29.94,29.83,17,8,22,0.00
2013-5-22,73.0,61.5,46.0,37.0,26.2,9.0,57,30,9,30.01,29.85,29,10,35,0.00
2013-5-23,75.0,61.7,45.0,43.0,37.6,30.0,81,44,19,29.98,29.86,14,5,17,0.00
2013-5-24,81.0,64.4,46.0,45.0,39.4,27.0,81,44,13,29.99,29.88,17,5,17,0.00
2013-5-25,81.0,63.1,46.0,46.0,45.1,41.0,87,55,29,29.99,29.90,15,6,0,0.00
2013-5-26,81.0,65.9,50.0,48.0,45.9,43.0,81,52,27,30.06,29.96,17,5,21,0.00
2013-5-27,70.0,60.4,50.0,57.0,50.1,45.0,87,69,45,30.09,29.98,15,6,18,0.00
2013-5-28,79.0,68.1,57.0,55.0,52.8,48.0,93,61,34,29.98,29.87,13,5,0,0.00
2013-5-29,82.0,73.1,63.0,54.0,48.8,45.0,63,43,26,29.92,29.84,16,7,18,0.00
2013-5-30,86.0,69.8,52.0,48.0,44.1,37.0,87,45,19,29.96,29.88,15,5,20,0.00
2013-5-31,97.0,77.2,63.0,48.0,38.4,21.0,55,29,7,30.00,29.87,24,11,30,0.00
2013-6-1,93.0,76.6,64.0,48.0,44.7,39.0,51,34,18,29.89,29.81,21,8,22,0.00
2013-6-2,93.0,93.0,93.0,45.0,45.0,45.0,18,18,18,29.81,29.81,8,8,0,0.00
2013-6-3,84.0,73.5,61.0,57.0,52.8,50.0,77,51,30,29.74,29.69,10,6,0,0.00
2013-6-4,91.0,80.9,64.0,57.0,53.8,50.0,63,40,27,29.86,29.74,13,8,16,0.00
2013-6-5,88.0,70.1,55.0,57.0,54.2,50.0,87,59,35,29.97,29.82,13,6,16,0.00
2013-6-6,93.0,71.8,55.0,61.0,55.7,52.0,87,60,31,29.92,29.76,12,5,0,0.00
2013-6-7,106.0,79.3,57.0,66.0,57.7,48.0,87,54,14,29.86,29.68,16,4,0,0.00
2013-6-8,106.0,90.9,75.0,70.0,58.7,54.0,64,36,21,29.71,29.61,23,9,33,0.00
2013-6-9,86.0,76.3,64.0,57.0,53.8,52.0,67,46,34,29.82,29.65,20,10,23,0.00
2013-6-10,72.0,65.5,59.0,55.0,53.5,52.0,77,65,52,29.95,29.75,17,9,24,0.00
2013-6-11,84.0,69.7,55.0,55.0,53.2,48.0,87,58,28,29.97,29.85,10,4,0,0.00
2013-6-12,90.0,72.6,55.0,57.0,48.9,36.0,87,49,18,29.94,29.85,16,6,20,0.00
2013-6-13,86.0,72.0,54.0,48.0,43.0,39.0,76,38,19,30.07,29.92,17,6,23,0.00
2013-6-14,88.0,77.2,64.0,48.0,38.3,34.0,48,25,14,29.97,29.79,27,12,32,0.00
2013-6-15,90.0,71.9,52.0,54.0,48.0,37.0,81,47,21,29.90,29.78,13,4,16,0.00
2013-6-16,95.0,72.6,54.0,55.0,49.3,41.0,87,49,15,30.03,29.90,15,4,16,0.00
2013-6-17,90.0,73.2,55.0,54.0,47.8,41.0,76,45,18,30.02,29.93,20,8,21,0.00
2013-6-18,82.0,69.5,57.0,52.0,45.7,36.0,82,46,19,29.97,29.88,18,8,22,0.00
2013-6-19,81.0,67.1,52.0,48.0,43.9,41.0,71,45,25,30.05,29.94,14,4,16,0.00
2013-6-20,84.0,65.1,55.0,48.0,45.8,43.0,76,53,26,29.98,29.90,17,6,20,0.00
2013-6-21,90.0,88.5,88.0,45.0,39.0,32.0,22,17,13,29.93,29.88,10,8,16,0.00
2013-6-22,93.0,84.7,66.0,52.0,46.8,41.0,46,28,18,29.90,29.77,18,8,27,0.00
2013-6-23,79.0,69.5,59.0,61.0,55.0,48.0,82,60,41,29.82,29.74,21,8,25,0.00
2013-6-24,66.0,64.1,61.0,61.0,57.9,55.0,82,80,72,29.89,29.79,14,10,17,0.00
2013-6-25,75.0,68.0,61.0,64.0,63.0,61.0,100,86,69,29.97,29.90,15,10,24,0.00
2013-7-1,104.0,95.8,88.0,66.0,62.8,57.0,48,35,22,29.81,29.76,8,4,0,0.00
2013-7-2,102.0,88.4,75.0,66.0,63.7,57.0,69,46,29,29.82,29.77,15,6,0,0.00
2013-7-3,106.0,87.5,70.0,70.0,63.5,57.0,73,48,26,29.86,29.69,9,4,0,0.00
2013-7-4,109.0,94.7,75.0,66.0,59.8,46.0,73,36,16,29.72,29.58,17,7,25,0.00
2013-7-5,90.0,76.0,64.0,59.0,52.6,46.0,67,45,25,29.71,29.60,12,7,0,0.00
2013-7-6,90.0,72.8,61.0,59.0,55.4,54.0,82,56,31,29.77,29.67,14,6,0,0.00
2013-7-7,93.0,72.5,55.0,61.0,51.9,30.0,93,56,10,29.81,29.72,15,6,17,0.00
2013-7-8,97.0,70.5,55.0,55.0,42.9,-99.9,87,47,9,29.92,29.78,16,5,0,0.00
2013-7-9,100.0,76.1,57.0,55.0,49.9,37.0,87,48,12,30.00,29.88,9,3,0,0.00
2013-7-10,99.0,72.5,61.0,61.0,41.9,-99.9,77,43,12,29.93,29.81,15,5,0,0.00
2013-7-11,64.0,64.0,64.0,50.0,50.0,50.0,59,59,59,29.86,29.86,6,6,0,0.00
2013-7-15,90.0,80.4,61.0,55.0,52.2,48.0,63,39,27,29.81,29.73,14,12,0,0.00
2013-7-16,84.0,67.2,50.0,54.0,50.0,46.0,87,57,28,29.93,29.78,12,7,0,0.00
2013-7-17,81.0,81.0,81.0,54.0,54.0,54.0,39,39,39,29.89,29.89,9,9,0,0.00
2013-7-21,81.0,81.0,81.0,54.0,54.0,54.0,39,39,39,29.89,29.89,9,9,0,0.00
2013-7-22,81.0,81.0,81.0,54.0,54.0,54.0,39,39,39,29.89,29.89,9,9,0,0.00
2013-7-23,81.0,81.0,81.0,54.0,54.0,54.0,39,39,39,29.89,29.89,9,9,0,0.00
2013-7-25,99.0,89.4,70.0,63.0,57.2,54.0,60,35,25,29.92,29.85,12,8,0,0.00
2013-7-26,97.0,73.9,59.0,63.0,52.5,-99.9,77,53,26,30.03,29.89,10,4,0,0.00
2013-7-27,64.0,62.2,61.0,55.0,54.2,54.0,77,74,67,29.94,29.92,5,2,0,0.00
2013-7-28,61.0,61.0,61.0,54.0,54.0,54.0,77,77,77,29.92,29.92,0,0,0,0.00
2013-7-29,82.0,73.3,61.0,55.0,54.4,54.0,77,53,39,29.92,29.87,12,8,0,0.00
2013-7-30,88.0,71.4,59.0,54.0,51.7,48.0,82,57,25,30.07,29.95,6,6,0,0.00
2013-7-31,81.0,65.5,55.0,57.0,54.5,52.0,93,70,44,30.04,29.99,7,2,0,0.00
2013-8-1,72.0,70.0,64.0,54.0,54.0,54.0,67,56,53,29.91,29.90,5,5,0,0.00
2013-8-2,64.0,64.0,64.0,54.0,54.0,54.0,67,67,67,29.91,29.91,2,2,0,0.00
2013-8-3,88.0,66.4,61.0,54.0,52.4,52.0,72,64,31,29.89,29.87,8,4,0,0.00
2013-8-4,88.0,88.0,88.0,54.0,54.0,54.0,31,31,31,29.89,29.89,8,8,0,0.00
2013-8-5,90.0,78.2,63.0,54.0,50.2,45.0,67,43,21,29.93,29.87,10,9,0,0.00
2013-8-6,86.0,73.5,61.0,54.0,52.0,50.0,67,50,33,29.92,29.90,6,6,0,0.00
2013-8-7,81.0,78.0,75.0,55.0,54.5,54.0,50,44,39,30.02,29.97,9,7,0,0.00
2013-8-8,59.0,57.0,55.0,52.0,52.0,52.0,87,82,76,29.98,29.97,6,3,0,0.00
2013-8-9,72.0,63.5,55.0,54.0,53.0,52.0,87,70,53,29.92,29.89,8,4,0,0.00
2013-8-10,77.0,72.1,64.0,57.0,55.9,55.0,72,58,50,29.96,29.92,6,5,0,0.00
2013-8-11,90.0,73.0,57.0,55.0,54.2,52.0,93,59,29,29.96,29.86,12,6,0,0.00
2013-8-12,61.0,58.0,55.0,54.0,53.0,52.0,87,82,77,29.91,29.90,5,2,0,0.00
2013-8-14,70.0,70.0,70.0,57.0,57.0,57.0,64,64,64,29.86,29.86,7,7,0,0.00
2013-8-15,73.0,71.0,70.0,61.0,58.3,57.0,64,64,64,29.88,29.86,7,6,0,0.00
2013-8-20,90.0,90.0,90.0,63.0,63.0,63.0,40,40,40,29.82,29.82,3,3,0,0.00
2013-8-21,84.0,84.0,84.0,61.0,61.0,61.0,45,45,45,29.87,29.87,2,2,0,0.00
2013-8-22,79.0,79.0,79.0,52.0,52.0,52.0,39,39,39,29.90,29.90,2,2,0,0.00
2013-8-28,90.0,90.0,90.0,50.0,50.0,50.0,25,25,25,29.87,29.87,5,5,0,0.00
2013-9-3,84.0,84.0,84.0,52.0,52.0,52.0,32,32,32,29.94,29.94,7,7,0,0.00
2013-9-6,90.0,85.5,81.0,48.0,46.5,45.0,32,26,21,29.97,29.90,12,10,0,0.00
2013-9-17,59.0,59.0,59.0,52.0,52.0,52.0,76,76,76,29.70,29.70,6,6,0,0.00
2013-9-18,59.0,59.0,59.0,52.0,52.0,52.0,76,76,76,29.70,29.70,6,6,0,0.00
2013-9-23,79.0,79.0,79.0,54.0,54.0,54.0,41,41,41,29.98,29.98,0,0,0,0.00
2013-10-31,55.0,46.5,43.0,43.0,38.0,36.0,75,72,62,30.19,30.16,6,2,0,0.00
2013-11-1,75.0,75.0,75.0,43.0,43.0,43.0,31,31,31,30.05,30.05,3,3,0,0.00
2013-12-12,59.0,41.4,28.0,32.0,29.6,25.0,86,66,33,30.30,30.19,9,3,0,0.00
2013-12-13,64.0,44.9,32.0,34.0,30.6,28.0,92,62,27,30.35,30.25,12,4,0,0.00
2013-12-14,59.0,41.3,30.0,36.0,29.8,-99.9,93,71,38,30.45,30.33,5,2,0,0.00
2013-12-15,63.0,44.4,32.0,36.0,32.7,28.0,86,66,33,30.41,30.28,7,4,0,0.00
2013-12-16,64.0,45.3,32.0,37.0,32.4,28.0,86,64,31,30.29,30.16,5,2,0,0.00
2013-12-17,63.0,47.5,36.0,37.0,33.5,30.0,80,61,36,30.22,30.06,5,3,0,0.00
2013-12-18,63.0,47.9,37.0,39.0,34.7,32.0,81,63,33,30.06,29.72,6,4,0,0.00
2013-12-19,59.0,50.1,41.0,37.0,24.7,14.0,81,41,22,29.96,29.72,36,18,41,0.00
2013-12-20,64.0,52.4,45.0,23.0,11.8,5.0,42,20,9,30.02,29.95,27,15,32,0.00
2013-12-21,63.0,43.8,32.0,34.0,26.3,-99.9,80,55,29,30.11,29.98,8,3,0,0.00
2013-12-22,63.0,43.9,32.0,36.0,31.2,27.0,86,63,36,30.31,30.11,8,3,0,0.00
2013-12-23,63.0,45.4,32.0,37.0,33.6,28.0,86,66,39,30.44,30.32,7,3,0,0.00
2013-12-27,57.0,46.3,32.0,34.0,29.4,23.0,74,53,38,30.28,30.17,8,3,0,0.00
2013-12-28,70.0,46.7,34.0,30.0,23.4,-99.9,74,48,19,30.16,30.04,28,10,31,0.00
2013-12-29,63.0,51.8,37.0,34.0,25.0,16.0,60,36,19,30.23,30.11,16,5,22,0.00
2013-12-30,63.0,46.8,32.0,36.0,27.6,19.0,69,48,31,30.30,30.22,7,3,0,0.00
2013-12-31,64.0,47.7,37.0,32.0,28.1,25.0,69,49,25,30.30,30.18,9,4,0,0.00
2014-1-1,63.0,48.6,32.0,32.0,29.2,25.0,80,49,29,30.24,30.15,3,2,0,0.00
2014-1-2,66.0,49.5,37.0,34.0,30.7,28.0,69,50,27,30.22,30.07,8,3,0,0.00